sensor_id;sensor_type;location;lat;lon;timestamp;temperature;humidity
7378;DHT22;3730;50.856;12.776;2022-10-16T09:30:48;16.10;99.90
7378;DHT22;3730;50.856;12.776;2022-10-16T09:33:16;17.50;99.90
7378;DHT22;3730;50.856;12.776;2022-10-16T09:35:44;17.50;99.90
7378;DHT22;3730;50.856;12.776;2022-10-16T09:38:31;17.60;99.90
7378;DHT22;3730;50.856;12.776;2022-10-16T09:40:59;17.60;99.90
7378;DHT22;3730;50.856;12.776;2022-10-16T09:43:47;17.60;99.90
7378;DHT22;3730;50.856;12.776;2022-10-16T09:46:27;17.70;99.90
7378;DHT22;3730;50.856;12.776;2022-10-16T09:48:59;17.70;99.90
7378;DHT22;3730;50.856;12.776;2022-10-16T09:51:29;17.80;99.90
7378;DHT22;3730;50.856;12.776;2022-10-16T09:54:16;17.80;99.90
7378;DHT22;3730;50.856;12.776;2022-10-16T09:56:42;17.80;99.90
7378;DHT22;3730;50.856;12.776;2022-10-16T09:59:21;17.80;99.90
7378;DHT22;3730;50.856;12.776;2022-10-16T10:01:51;17.80;99.90
7378;DHT22;3730;50.856;12.776;2022-10-16T10:04:19;17.80;99.90
7378;DHT22;3730;50.856;12.776;2022-10-16T10:06:52;17.80;99.90
7378;DHT22;3730;50.856;12.776;2022-10-16T10:09:27;17.80;99.90
7378;DHT22;3730;50.856;12.776;2022-10-16T10:11:59;17.80;99.90
7378;DHT22;3730;50.856;12.776;2022-10-16T10:14:40;17.90;99.90
7378;DHT22;3730;50.856;12.776;2022-10-16T10:20:00;18.00;99.90
7378;DHT22;3730;50.856;12.776;2022-10-16T10:22:40;18.00;99.90
7378;DHT22;3730;50.856;12.776;2022-10-16T10:27:57;18.10;99.90
7378;DHT22;3730;50.856;12.776;2022-10-16T10:33:50;18.20;99.90
7378;DHT22;3730;50.856;12.776;2022-10-16T10:36:32;18.20;99.90
7378;DHT22;3730;50.856;12.776;2022-10-16T10:44:38;18.30;99.90
7378;DHT22;3730;50.856;12.776;2022-10-16T10:52:28;18.30;99.90
7378;DHT22;3730;50.856;12.776;2022-10-16T11:06:07;18.30;99.90
7378;DHT22;3730;50.856;12.776;2022-10-16T11:55:18;18.40;99.90
7378;DHT22;3730;50.856;12.776;2022-10-16T12:00:21;19.30;99.90
7378;DHT22;3730;50.856;12.776;2022-10-16T12:08:28;19.80;99.90
7378;DHT22;3730;50.856;12.776;2022-10-16T12:11:05;19.80;99.90
7378;DHT22;3730;50.856;12.776;2022-10-16T12:13:38;19.90;99.90
7378;DHT22;3730;50.856;12.776;2022-10-16T12:16:20;19.90;99.90
7378;DHT22;3730;50.856;12.776;2022-10-16T12:18:47;19.90;99.90
7378;DHT22;3730;50.856;12.776;2022-10-16T12:21:14;19.90;99.90
7378;DHT22;3730;50.856;12.776;2022-10-16T12:23:50;19.90;99.90
7378;DHT22;3730;50.856;12.776;2022-10-16T12:26:27;19.80;99.90
7378;DHT22;3730;50.856;12.776;2022-10-16T12:28:54;19.80;99.90
7378;DHT22;3730;50.856;12.776;2022-10-16T12:31:21;19.70;99.90
7378;DHT22;3730;50.856;12.776;2022-10-16T12:34:20;19.60;99.90
7378;DHT22;3730;50.856;12.776;2022-10-16T12:36:48;19.50;99.90
7378;DHT22;3730;50.856;12.776;2022-10-16T12:39:24;19.40;99.90
7378;DHT22;3730;50.856;12.776;2022-10-16T12:42:05;19.30;99.90
7378;DHT22;3730;50.856;12.776;2022-10-16T12:44:43;19.30;99.90
7378;DHT22;3730;50.856;12.776;2022-10-16T12:47:20;19.30;99.90
7378;DHT22;3730;50.856;12.776;2022-10-16T12:49:52;19.30;99.90
7378;DHT22;3730;50.856;12.776;2022-10-16T12:52:38;19.30;99.90
7378;DHT22;3730;50.856;12.776;2022-10-16T12:55:05;19.20;99.90
7378;DHT22;3730;50.856;12.776;2022-10-16T13:11:44;19.10;99.90
7378;DHT22;3730;50.856;12.776;2022-10-16T13:17:08;19.10;99.90
7378;DHT22;3730;50.856;12.776;2022-10-16T13:28:11;19.00;99.90
7378;DHT22;3730;50.856;12.776;2022-10-16T13:30:43;19.00;99.90
7378;DHT22;3730;50.856;12.776;2022-10-16T13:35:36;19.00;99.90
7378;DHT22;3730;50.856;12.776;2022-10-16T13:38:13;19.00;99.90
7378;DHT22;3730;50.856;12.776;2022-10-16T13:40:55;19.00;99.90
7378;DHT22;3730;50.856;12.776;2022-10-16T13:43:38;19.00;99.90
7378;DHT22;3730;50.856;12.776;2022-10-16T13:46:16;19.00;99.90
7378;DHT22;3730;50.856;12.776;2022-10-16T13:48:42;19.00;99.90
7378;DHT22;3730;50.856;12.776;2022-10-16T13:51:12;19.00;99.90
7378;DHT22;3730;50.856;12.776;2022-10-16T13:53:38;19.00;99.90
7378;DHT22;3730;50.856;12.776;2022-10-16T13:56:07;19.00;99.90
7378;DHT22;3730;50.856;12.776;2022-10-16T13:58:33;19.10;99.90
7378;DHT22;3730;50.856;12.776;2022-10-16T14:01:02;19.10;99.90
7378;DHT22;3730;50.856;12.776;2022-10-16T14:03:30;19.10;99.90
7378;DHT22;3730;50.856;12.776;2022-10-16T14:05:59;19.20;99.90
7378;DHT22;3730;50.856;12.776;2022-10-16T14:08:27;19.20;99.90
7378;DHT22;3730;50.856;12.776;2022-10-16T14:10:56;19.20;99.90
7378;DHT22;3730;50.856;12.776;2022-10-16T14:13:42;19.20;99.90
7378;DHT22;3730;50.856;12.776;2022-10-16T14:16:17;19.20;99.90
7378;DHT22;3730;50.856;12.776;2022-10-16T14:18:46;19.20;99.90
7378;DHT22;3730;50.856;12.776;2022-10-16T14:21:16;19.20;99.90
7378;DHT22;3730;50.856;12.776;2022-10-16T14:23:43;19.10;99.90
7378;DHT22;3730;50.856;12.776;2022-10-16T14:28:35;19.10;99.90
7378;DHT22;3730;50.856;12.776;2022-10-16T14:31:17;19.10;99.90
7378;DHT22;3730;50.856;12.776;2022-10-16T14:33:46;19.10;99.90
7378;DHT22;3730;50.856;12.776;2022-10-16T14:36:14;19.10;99.90
7378;DHT22;3730;50.856;12.776;2022-10-16T14:38:43;19.10;99.90
7378;DHT22;3730;50.856;12.776;2022-10-16T14:41:09;19.10;99.90
7378;DHT22;3730;50.856;12.776;2022-10-16T14:43:37;19.10;99.90
7378;DHT22;3730;50.856;12.776;2022-10-16T14:46:09;19.10;99.90
7378;DHT22;3730;50.856;12.776;2022-10-16T14:48:41;19.10;99.90
7378;DHT22;3730;50.856;12.776;2022-10-16T14:51:13;19.10;99.90
7378;DHT22;3730;50.856;12.776;2022-10-16T14:53:38;19.10;99.90
7378;DHT22;3730;50.856;12.776;2022-10-16T14:56:24;19.00;99.90
7378;DHT22;3730;50.856;12.776;2022-10-16T14:58:51;19.00;99.90
7378;DHT22;3730;50.856;12.776;2022-10-16T15:01:17;19.00;99.90
7378;DHT22;3730;50.856;12.776;2022-10-16T15:03:43;19.00;99.90
7378;DHT22;3730;50.856;12.776;2022-10-16T15:06:14;18.90;99.90
7378;DHT22;3730;50.856;12.776;2022-10-16T15:08:40;18.90;99.90
7378;DHT22;3730;50.856;12.776;2022-10-16T15:11:17;18.90;99.90
7378;DHT22;3730;50.856;12.776;2022-10-16T15:13:44;18.90;99.90
7378;DHT22;3730;50.856;12.776;2022-10-16T15:16:15;18.90;99.90
7378;DHT22;3730;50.856;12.776;2022-10-16T15:18:41;18.80;99.90
7378;DHT22;3730;50.856;12.776;2022-10-16T15:21:08;18.80;99.90
7378;DHT22;3730;50.856;12.776;2022-10-16T15:23:34;18.80;99.90
7378;DHT22;3730;50.856;12.776;2022-10-16T15:26:00;18.80;99.90
7378;DHT22;3730;50.856;12.776;2022-10-16T15:28:26;18.70;99.90
7378;DHT22;3730;50.856;12.776;2022-10-16T15:30:54;18.70;99.90
7378;DHT22;3730;50.856;12.776;2022-10-16T15:33:23;18.70;99.90
7378;DHT22;3730;50.856;12.776;2022-10-16T15:35:50;18.70;99.90
7378;DHT22;3730;50.856;12.776;2022-10-16T15:38:17;18.70;99.90
7378;DHT22;3730;50.856;12.776;2022-10-16T15:40:43;18.60;99.90
7378;DHT22;3730;50.856;12.776;2022-10-16T15:43:09;18.60;99.90
7378;DHT22;3730;50.856;12.776;2022-10-16T15:45:35;18.60;99.90
7378;DHT22;3730;50.856;12.776;2022-10-16T15:48:01;18.60;99.90
7378;DHT22;3730;50.856;12.776;2022-10-16T15:50:27;18.60;99.90
7378;DHT22;3730;50.856;12.776;2022-10-16T15:52:52;18.60;99.90
7378;DHT22;3730;50.856;12.776;2022-10-16T15:55:18;18.50;99.90
7378;DHT22;3730;50.856;12.776;2022-10-16T15:57:45;18.50;99.90
7378;DHT22;3730;50.856;12.776;2022-10-16T16:00:13;18.40;99.90
7378;DHT22;3730;50.856;12.776;2022-10-16T16:12:29;18.40;99.90
7378;DHT22;3730;50.856;12.776;2022-10-16T16:14:55;18.20;99.90
7378;DHT22;3730;50.856;12.776;2022-10-16T16:17:21;18.10;99.90
7378;DHT22;3730;50.856;12.776;2022-10-16T16:19:46;18.10;99.90
7378;DHT22;3730;50.856;12.776;2022-10-16T16:22:12;18.00;99.90
7378;DHT22;3730;50.856;12.776;2022-10-16T16:24:38;17.90;99.90
7378;DHT22;3730;50.856;12.776;2022-10-16T16:27:03;17.90;99.90
7378;DHT22;3730;50.856;12.776;2022-10-16T16:29:29;17.90;99.90
7378;DHT22;3730;50.856;12.776;2022-10-16T16:31:55;17.90;99.90
7378;DHT22;3730;50.856;12.776;2022-10-16T16:34:26;17.80;99.90
7378;DHT22;3730;50.856;12.776;2022-10-16T16:36:51;17.80;99.90
7378;DHT22;3730;50.856;12.776;2022-10-16T16:39:17;17.70;99.90
7378;DHT22;3730;50.856;12.776;2022-10-16T16:44:11;17.60;99.90
7378;DHT22;3730;50.856;12.776;2022-10-16T16:46:37;17.60;99.90
7378;DHT22;3730;50.856;12.776;2022-10-16T16:49:05;17.50;99.90
7378;DHT22;3730;50.856;12.776;2022-10-16T16:51:32;17.50;99.90
7378;DHT22;3730;50.856;12.776;2022-10-16T16:53:58;17.50;99.90
7378;DHT22;3730;50.856;12.776;2022-10-16T16:56:25;17.40;99.90
7378;DHT22;3730;50.856;12.776;2022-10-16T16:58:54;17.40;99.90
7378;DHT22;3730;50.856;12.776;2022-10-16T17:01:22;17.30;99.90
7378;DHT22;3730;50.856;12.776;2022-10-16T17:03:50;17.30;99.90
7378;DHT22;3730;50.856;12.776;2022-10-16T17:06:18;17.30;99.90
7378;DHT22;3730;50.856;12.776;2022-10-16T17:08:44;17.30;99.90
7378;DHT22;3730;50.856;12.776;2022-10-16T17:11:15;17.30;99.90
7378;DHT22;3730;50.856;12.776;2022-10-16T17:13:41;17.30;99.90
7378;DHT22;3730;50.856;12.776;2022-10-16T17:16:07;17.30;99.90
7378;DHT22;3730;50.856;12.776;2022-10-16T17:18:33;17.20;99.90
7378;DHT22;3730;50.856;12.776;2022-10-16T17:21:02;17.20;99.90
7378;DHT22;3730;50.856;12.776;2022-10-16T17:23:29;16.50;99.90
7378;DHT22;3730;50.856;12.776;2022-10-16T17:25:55;17.00;99.90
7378;DHT22;3730;50.856;12.776;2022-10-16T17:28:20;17.20;99.90
7378;DHT22;3730;50.856;12.776;2022-10-16T17:30:46;17.10;99.90
7378;DHT22;3730;50.856;12.776;2022-10-16T17:33:13;17.10;99.90
7378;DHT22;3730;50.856;12.776;2022-10-16T17:35:43;17.10;99.90
7378;DHT22;3730;50.856;12.776;2022-10-16T17:38:10;17.10;99.90
7378;DHT22;3730;50.856;12.776;2022-10-16T17:40:37;17.10;99.90
7378;DHT22;3730;50.856;12.776;2022-10-16T17:43:03;17.00;99.90
7378;DHT22;3730;50.856;12.776;2022-10-16T18:17:09;17.00;99.90
7378;DHT22;3730;50.856;12.776;2022-10-16T18:19:35;16.70;99.90
7378;DHT22;3730;50.856;12.776;2022-10-16T18:22:01;16.60;99.90
7378;DHT22;3730;50.856;12.776;2022-10-16T18:24:26;16.70;99.90
7378;DHT22;3730;50.856;12.776;2022-10-16T18:26:54;16.70;99.90
7378;DHT22;3730;50.856;12.776;2022-10-16T18:29:22;16.70;99.90
7378;DHT22;3730;50.856;12.776;2022-10-16T18:31:48;16.70;99.90
7378;DHT22;3730;50.856;12.776;2022-10-16T18:34:14;16.70;99.90
7378;DHT22;3730;50.856;12.776;2022-10-16T18:36:39;16.70;99.90
7378;DHT22;3730;50.856;12.776;2022-10-16T18:39:07;16.70;99.90
7378;DHT22;3730;50.856;12.776;2022-10-16T18:41:35;16.70;99.90
7378;DHT22;3730;50.856;12.776;2022-10-16T18:44:03;16.60;99.90
7378;DHT22;3730;50.856;12.776;2022-10-16T18:46:29;16.70;99.90
7378;DHT22;3730;50.856;12.776;2022-10-16T18:48:56;16.60;99.90
7378;DHT22;3730;50.856;12.776;2022-10-16T18:51:26;16.60;99.90
7378;DHT22;3730;50.856;12.776;2022-10-16T18:53:57;16.70;99.90
7378;DHT22;3730;50.856;12.776;2022-10-16T18:56:25;16.70;99.90
7378;DHT22;3730;50.856;12.776;2022-10-16T18:58:51;16.70;99.90
7378;DHT22;3730;50.856;12.776;2022-10-16T19:01:25;16.70;99.90
7378;DHT22;3730;50.856;12.776;2022-10-16T19:03:56;16.60;99.90
7378;DHT22;3730;50.856;12.776;2022-10-16T19:06:23;16.70;99.90
7378;DHT22;3730;50.856;12.776;2022-10-16T19:08:49;16.60;99.90
7378;DHT22;3730;50.856;12.776;2022-10-16T19:11:17;16.60;99.90
7378;DHT22;3730;50.856;12.776;2022-10-16T19:13:44;16.60;99.90
7378;DHT22;3730;50.856;12.776;2022-10-16T19:16:13;16.60;99.90
7378;DHT22;3730;50.856;12.776;2022-10-16T19:18:39;16.60;99.90
7378;DHT22;3730;50.856;12.776;2022-10-16T19:21:06;16.60;99.90
7378;DHT22;3730;50.856;12.776;2022-10-16T19:23:32;16.70;99.90
7378;DHT22;3730;50.856;12.776;2022-10-16T19:26:06;16.60;99.90
7378;DHT22;3730;50.856;12.776;2022-10-16T19:28:32;16.60;99.90
7378;DHT22;3730;50.856;12.776;2022-10-16T19:31:03;16.70;99.90
7378;DHT22;3730;50.856;12.776;2022-10-16T19:33:30;16.60;99.90
7378;DHT22;3730;50.856;12.776;2022-10-16T19:39:06;16.60;99.90
7378;DHT22;3730;50.856;12.776;2022-10-16T19:41:33;16.60;99.90
7378;DHT22;3730;50.856;12.776;2022-10-16T19:44:02;16.60;99.90
7378;DHT22;3730;50.856;12.776;2022-10-16T19:46:29;16.70;99.90
7378;DHT22;3730;50.856;12.776;2022-10-16T19:48:56;16.70;99.90
7378;DHT22;3730;50.856;12.776;2022-10-16T19:51:23;16.70;99.90
7378;DHT22;3730;50.856;12.776;2022-10-16T19:54:03;16.60;99.90
7378;DHT22;3730;50.856;12.776;2022-10-16T19:56:30;16.60;99.90
7378;DHT22;3730;50.856;12.776;2022-10-16T19:58:57;16.60;99.90
7378;DHT22;3730;50.856;12.776;2022-10-16T20:01:25;16.70;99.90
7378;DHT22;3730;50.856;12.776;2022-10-16T20:03:52;16.60;99.90
7378;DHT22;3730;50.856;12.776;2022-10-16T20:06:18;16.60;99.90
7378;DHT22;3730;50.856;12.776;2022-10-16T20:08:46;16.60;99.90
7378;DHT22;3730;50.856;12.776;2022-10-16T20:11:14;16.60;99.90
7378;DHT22;3730;50.856;12.776;2022-10-16T20:13:40;16.60;99.90
7378;DHT22;3730;50.856;12.776;2022-10-16T20:16:06;16.50;99.90
7378;DHT22;3730;50.856;12.776;2022-10-16T20:18:32;16.50;99.90
7378;DHT22;3730;50.856;12.776;2022-10-16T20:20:58;16.50;99.90
7378;DHT22;3730;50.856;12.776;2022-10-16T20:23:24;16.50;99.90
7378;DHT22;3730;50.856;12.776;2022-10-16T20:25:50;16.50;99.90
7378;DHT22;3730;50.856;12.776;2022-10-16T20:28:19;16.50;99.90
7378;DHT22;3730;50.856;12.776;2022-10-16T20:30:47;16.50;99.90
7378;DHT22;3730;50.856;12.776;2022-10-16T20:33:14;16.50;99.90
7378;DHT22;3730;50.856;12.776;2022-10-16T20:35:42;16.40;99.90
7378;DHT22;3730;50.856;12.776;2022-10-16T20:38:09;16.40;99.90
7378;DHT22;3730;50.856;12.776;2022-10-16T20:40:37;16.40;99.90
7378;DHT22;3730;50.856;12.776;2022-10-16T20:43:03;16.40;99.90
7378;DHT22;3730;50.856;12.776;2022-10-16T20:45:29;16.40;99.90
7378;DHT22;3730;50.856;12.776;2022-10-16T20:47:55;16.40;99.90
7378;DHT22;3730;50.856;12.776;2022-10-16T20:50:20;16.30;99.90
7378;DHT22;3730;50.856;12.776;2022-10-16T20:52:46;16.30;99.90
7378;DHT22;3730;50.856;12.776;2022-10-16T20:55:12;16.30;99.90
7378;DHT22;3730;50.856;12.776;2022-10-16T20:57:37;16.30;99.90
7378;DHT22;3730;50.856;12.776;2022-10-16T21:00:04;16.30;99.90
7378;DHT22;3730;50.856;12.776;2022-10-16T21:02:30;16.30;99.90
7378;DHT22;3730;50.856;12.776;2022-10-16T21:04:56;16.30;99.90
7378;DHT22;3730;50.856;12.776;2022-10-16T21:07:21;16.30;99.90
7378;DHT22;3730;50.856;12.776;2022-10-16T21:09:47;16.30;99.90
7378;DHT22;3730;50.856;12.776;2022-10-16T21:12:13;16.30;99.90
7378;DHT22;3730;50.856;12.776;2022-10-16T21:14:38;16.30;99.90
7378;DHT22;3730;50.856;12.776;2022-10-16T21:17:04;16.30;99.90
7378;DHT22;3730;50.856;12.776;2022-10-16T21:19:30;16.30;99.90
7378;DHT22;3730;50.856;12.776;2022-10-16T21:21:56;16.30;99.90
7378;DHT22;3730;50.856;12.776;2022-10-16T21:24:22;16.20;99.90
7378;DHT22;3730;50.856;12.776;2022-10-16T21:26:48;16.30;99.90
7378;DHT22;3730;50.856;12.776;2022-10-16T21:29:14;16.20;99.90
7378;DHT22;3730;50.856;12.776;2022-10-16T21:31:40;16.20;99.90
7378;DHT22;3730;50.856;12.776;2022-10-16T21:34:06;16.20;99.90
7378;DHT22;3730;50.856;12.776;2022-10-16T21:36:36;16.20;99.90
7378;DHT22;3730;50.856;12.776;2022-10-16T21:39:12;16.20;99.90
7378;DHT22;3730;50.856;12.776;2022-10-16T21:41:38;16.20;99.90
7378;DHT22;3730;50.856;12.776;2022-10-16T21:44:04;16.20;99.90
7378;DHT22;3730;50.856;12.776;2022-10-16T21:46:32;16.20;99.90
7378;DHT22;3730;50.856;12.776;2022-10-16T21:49:00;16.20;99.90
7378;DHT22;3730;50.856;12.776;2022-10-16T21:51:31;16.20;99.90
7378;DHT22;3730;50.856;12.776;2022-10-16T21:53:59;16.10;99.90
7378;DHT22;3730;50.856;12.776;2022-10-16T21:56:25;16.10;99.90
7378;DHT22;3730;50.856;12.776;2022-10-16T21:58:51;16.10;99.90
7378;DHT22;3730;50.856;12.776;2022-10-16T22:01:18;16.10;99.90
7378;DHT22;3730;50.856;12.776;2022-10-16T22:03:45;16.10;99.90
7378;DHT22;3730;50.856;12.776;2022-10-16T22:06:12;16.10;99.90
7378;DHT22;3730;50.856;12.776;2022-10-16T22:08:38;16.10;99.90
7378;DHT22;3730;50.856;12.776;2022-10-16T22:11:07;16.10;99.90
7378;DHT22;3730;50.856;12.776;2022-10-16T22:13:33;16.10;99.90
7378;DHT22;3730;50.856;12.776;2022-10-16T22:15:59;16.00;99.90
7378;DHT22;3730;50.856;12.776;2022-10-16T22:18:25;16.00;99.90
7378;DHT22;3730;50.856;12.776;2022-10-16T22:20:51;16.00;99.90
7378;DHT22;3730;50.856;12.776;2022-10-16T22:23:17;14.40;99.90
7378;DHT22;3730;50.856;12.776;2022-10-16T22:35:28;15.90;99.90
7378;DHT22;3730;50.856;12.776;2022-10-16T22:37:54;15.70;99.90
7378;DHT22;3730;50.856;12.776;2022-10-16T22:40:19;15.70;99.90
7378;DHT22;3730;50.856;12.776;2022-10-16T22:42:45;15.70;99.90
7378;DHT22;3730;50.856;12.776;2022-10-16T22:45:11;15.70;99.90
7378;DHT22;3730;50.856;12.776;2022-10-16T22:47:36;15.60;99.90
7378;DHT22;3730;50.856;12.776;2022-10-16T22:50:02;15.60;99.90
